createdAt,value
2022-09-22T00:01:27.225Z,18.20
2022-09-22T00:03:56.416Z,19.00
2022-09-22T00:06:25.214Z,19.40
2022-09-22T00:08:57.146Z,19.00
2022-09-22T00:11:28.412Z,18.00
2022-09-22T00:13:59.355Z,20.80
2022-09-22T00:16:28.998Z,19.30
2022-09-22T00:18:56.718Z,19.40
2022-09-22T00:21:27.349Z,20.10
2022-09-22T00:23:55.323Z,20.80
2022-09-22T00:26:24.007Z,20.90
2022-09-22T00:28:54.454Z,18.80
2022-09-22T00:31:23.685Z,19.60
2022-09-22T00:33:52.373Z,21.40
2022-09-22T00:36:21.335Z,20.10
2022-09-22T00:38:50.839Z,19.90
2022-09-22T00:41:20.369Z,19.30
2022-09-22T00:43:49.100Z,18.70
2022-09-22T00:46:18.736Z,19.20
2022-09-22T00:48:48.315Z,20.10
2022-09-22T00:51:17.762Z,19.60
2022-09-22T00:53:45.987Z,23.40
2022-09-22T00:56:14.881Z,20.80
2022-09-22T00:58:44.360Z,22.90
2022-09-22T01:01:12.314Z,20.50
2022-09-22T01:03:39.921Z,21.60
2022-09-22T01:06:09.006Z,21.50
2022-09-22T01:08:37.438Z,22.70
2022-09-22T01:11:06.170Z,22.90
2022-09-22T01:13:37.487Z,23.60
2022-09-22T01:16:14.149Z,21.50
2022-09-22T01:18:49.024Z,24.00
2022-09-22T01:21:19.791Z,24.00
2022-09-22T01:23:56.443Z,24.20
2022-09-22T01:26:47.640Z,24.50
2022-09-22T01:29:31.751Z,24.40
2022-09-22T01:32:02.499Z,21.00
2022-09-22T01:34:32.746Z,23.70
2022-09-22T01:37:03.173Z,23.30
2022-09-22T01:39:34.617Z,23.60
2022-09-22T01:42:05.351Z,26.10
2022-09-22T01:44:35.666Z,22.40
2022-09-22T01:47:05.276Z,22.40
2022-09-22T01:49:35.634Z,21.00
2022-09-22T01:52:07.504Z,21.40
2022-09-22T01:54:38.240Z,21.50
2022-09-22T01:57:10.769Z,20.90
2022-09-22T01:59:39.814Z,22.30
2022-09-22T02:02:10.261Z,20.10
2022-09-22T02:04:39.208Z,24.30
2022-09-22T02:07:08.886Z,21.40
2022-09-22T02:09:39.252Z,20.60
2022-09-22T02:12:06.874Z,21.60
2022-09-22T02:14:34.652Z,22.10
2022-09-22T02:17:02.319Z,21.10
2022-09-22T02:19:31.595Z,20.30
2022-09-22T02:22:00.423Z,20.00
2022-09-22T02:24:29.020Z,20.70
2022-09-22T02:26:57.345Z,20.10
2022-09-22T02:29:26.411Z,20.50
2022-09-22T02:31:54.951Z,19.40
2022-09-22T02:34:22.888Z,19.60
2022-09-22T02:36:55.807Z,19.60
2022-09-22T02:39:25.447Z,20.90
2022-09-22T02:42:10.141Z,21.50
2022-09-22T02:44:42.108Z,19.40
2022-09-22T02:49:38.856Z,19.00
2022-09-22T02:52:10.440Z,20.10
2022-09-22T02:54:38.992Z,18.60
2022-09-22T02:57:07.270Z,19.40
2022-09-22T02:59:35.030Z,18.40
2022-09-22T03:02:02.902Z,19.20
2022-09-22T03:04:30.578Z,19.10
2022-09-22T03:06:58.457Z,20.50
2022-09-22T03:09:26.510Z,18.70
2022-09-22T03:11:54.372Z,18.90
2022-09-22T03:14:22.007Z,19.40
2022-09-22T03:16:49.696Z,17.50
2022-09-22T03:19:17.349Z,19.00
2022-09-22T03:21:45.119Z,18.30
2022-09-22T03:24:12.971Z,18.20
2022-09-22T03:26:40.843Z,19.30
2022-09-22T03:29:08.622Z,16.90
2022-09-22T03:31:36.778Z,18.30
2022-09-22T03:34:04.258Z,17.80
2022-09-22T03:36:32.650Z,19.00
2022-09-22T03:39:00.611Z,18.50
2022-09-22T03:41:28.446Z,17.30
2022-09-22T03:43:56.206Z,18.90
2022-09-22T03:46:24.623Z,19.70
2022-09-22T03:48:52.657Z,16.10
2022-09-22T03:51:20.624Z,18.00
2022-09-22T03:53:48.299Z,17.00
2022-09-22T03:56:16.051Z,15.50
2022-09-22T03:58:43.816Z,17.10
2022-09-22T04:01:11.831Z,16.90
2022-09-22T04:03:40.477Z,17.20
2022-09-22T04:06:08.439Z,18.60
2022-09-22T04:08:36.199Z,16.90
2022-09-22T04:11:04.398Z,15.70
2022-09-22T04:13:32.810Z,15.40
2022-09-22T04:16:01.439Z,15.60
2022-09-22T04:18:29.514Z,16.50
2022-09-22T04:20:57.929Z,15.20
2022-09-22T04:23:26.155Z,17.10
2022-09-22T04:25:53.799Z,15.80
2022-09-22T04:28:21.786Z,15.90
2022-09-22T04:30:49.588Z,15.10
2022-09-22T04:33:17.416Z,15.50
2022-09-22T04:35:45.088Z,16.30
2022-09-22T04:38:13.497Z,14.80
2022-09-22T04:40:41.286Z,14.70
2022-09-22T04:43:08.945Z,15.00
2022-09-22T04:45:39.673Z,15.60
2022-09-22T04:48:07.854Z,14.00
2022-09-22T04:50:35.654Z,13.70
2022-09-22T04:53:07.199Z,15.80
2022-09-22T04:55:34.932Z,13.90
2022-09-22T04:58:02.737Z,14.50
2022-09-22T05:00:30.913Z,14.20
2022-09-22T05:02:58.694Z,13.60
2022-09-22T05:05:27.495Z,13.00
2022-09-22T05:07:55.429Z,13.20
2022-09-22T05:10:24.688Z,15.40
2022-09-22T05:12:53.311Z,15.80
2022-09-22T05:15:22.507Z,15.30
2022-09-22T05:17:51.493Z,12.80
2022-09-22T05:20:19.771Z,12.70
2022-09-22T05:22:47.482Z,14.50
2022-09-22T05:25:16.423Z,11.90
2022-09-22T05:27:44.690Z,11.80
2022-09-22T05:30:13.591Z,10.20
2022-09-22T05:32:43.808Z,9.10
2022-09-22T05:35:12.673Z,7.90
2022-09-22T05:37:42.252Z,7.20
2022-09-22T05:40:11.458Z,8.50
2022-09-22T05:42:40.361Z,7.80
2022-09-22T05:45:09.501Z,6.90
2022-09-22T05:47:37.664Z,7.30
2022-09-22T05:50:07.064Z,9.10
2022-09-22T05:52:34.940Z,7.40
2022-09-22T05:55:03.208Z,6.70
2022-09-22T05:57:31.586Z,6.70
2022-09-22T06:00:00.165Z,7.70
2022-09-22T06:02:27.763Z,6.50
2022-09-22T06:04:55.594Z,6.00
2022-09-22T06:07:24.010Z,6.70
2022-09-22T06:09:51.525Z,5.70
2022-09-22T06:12:19.533Z,6.40
2022-09-22T06:14:47.376Z,6.80
2022-09-22T06:17:15.436Z,6.30
2022-09-22T06:19:43.776Z,6.70
2022-09-22T06:22:11.703Z,6.60
2022-09-22T06:24:39.815Z,5.30
2022-09-22T06:27:07.719Z,5.70
2022-09-22T06:29:37.841Z,6.20
2022-09-22T06:32:08.028Z,6.60
2022-09-22T06:34:35.938Z,6.00
2022-09-22T06:37:03.888Z,5.60
2022-09-22T06:39:31.780Z,6.50
2022-09-22T06:42:02.797Z,7.80
2022-09-22T06:44:31.478Z,7.50
2022-09-22T06:47:04.875Z,6.50
2022-09-22T06:52:00.363Z,7.60
2022-09-22T06:54:28.251Z,6.90
2022-09-22T06:56:56.027Z,6.20
2022-09-22T06:59:24.256Z,6.10
2022-09-22T07:01:52.480Z,6.20
2022-09-22T07:04:22.800Z,6.60
2022-09-22T07:06:50.318Z,6.70
2022-09-22T07:09:18.354Z,6.10
2022-09-22T07:11:48.658Z,6.60
2022-09-22T07:14:16.211Z,6.80
2022-09-22T07:16:44.142Z,6.70
2022-09-22T07:19:12.046Z,6.80
2022-09-22T07:21:39.923Z,6.30
2022-09-22T07:24:08.378Z,6.00
2022-09-22T07:26:37.794Z,7.10
2022-09-22T07:29:07.837Z,6.00
2022-09-22T07:31:36.630Z,6.60
2022-09-22T07:34:05.173Z,5.80
2022-09-22T07:36:33.770Z,6.90
2022-09-22T07:39:03.482Z,6.30
2022-09-22T07:41:31.859Z,6.10
2022-09-22T07:44:21.519Z,6.60
2022-09-22T07:46:49.383Z,7.70
2022-09-22T07:49:19.210Z,6.20
2022-09-22T07:51:47.790Z,6.40
2022-09-22T07:54:15.865Z,6.90
2022-09-22T07:56:44.236Z,6.20
2022-09-22T07:59:13.111Z,5.60
2022-09-22T08:01:43.615Z,6.10
2022-09-22T08:04:13.778Z,7.40
2022-09-22T08:06:41.288Z,6.50
2022-09-22T08:09:09.998Z,6.10
2022-09-22T08:11:38.343Z,6.20
2022-09-22T08:14:07.365Z,6.90
2022-09-22T08:16:36.421Z,5.60
2022-09-22T08:19:10.186Z,5.10
2022-09-22T08:21:47.702Z,5.80
2022-09-22T08:24:20.965Z,6.30
2022-09-22T08:26:50.068Z,6.50
2022-09-22T08:29:17.732Z,6.20
2022-09-22T08:31:46.664Z,6.20
2022-09-22T08:34:15.943Z,5.70
2022-09-22T08:36:46.720Z,5.60
2022-09-22T08:39:15.951Z,6.90
2022-09-22T08:41:48.246Z,5.40
2022-09-22T08:44:19.873Z,4.90
2022-09-22T08:46:47.805Z,4.40
2022-09-22T08:49:38.134Z,3.80
2022-09-22T08:52:09.583Z,5.70
2022-09-22T08:54:38.266Z,4.60
2022-09-22T08:57:13.198Z,5.20
2022-09-22T08:59:44.851Z,4.60
2022-09-22T09:02:32.807Z,4.30
2022-09-22T09:05:08.277Z,3.60
2022-09-22T09:07:42.864Z,3.80
2022-09-22T09:10:20.722Z,4.20
2022-09-22T09:13:02.520Z,3.70
2022-09-22T09:15:36.999Z,4.10
2022-09-22T09:18:12.623Z,3.60
2022-09-22T09:20:43.705Z,3.70
2022-09-22T09:23:13.790Z,3.10
2022-09-22T09:25:42.290Z,3.50
2022-09-22T09:28:13.043Z,3.90
2022-09-22T09:30:42.708Z,3.40
2022-09-22T09:33:16.124Z,3.70
2022-09-22T09:35:45.196Z,3.30
2022-09-22T09:38:14.939Z,3.50
2022-09-22T09:40:53.835Z,3.00
2022-09-22T09:43:22.912Z,3.20
2022-09-22T09:45:55.798Z,3.30
2022-09-22T09:48:29.504Z,2.60
2022-09-22T09:51:01.473Z,3.20
2022-09-22T09:53:31.712Z,2.60
2022-09-22T09:55:59.959Z,2.80
2022-09-22T09:58:46.469Z,2.50
2022-09-22T10:01:14.794Z,2.60
2022-09-22T10:03:46.328Z,2.80
2022-09-22T10:06:23.664Z,2.60
2022-09-22T10:08:51.753Z,2.40
2022-09-22T10:11:29.545Z,2.90
2022-09-22T10:13:58.282Z,3.00
2022-09-22T10:16:26.468Z,2.80
2022-09-22T10:19:03.595Z,2.60
2022-09-22T10:21:32.085Z,2.70
2022-09-22T10:24:00.403Z,2.90
2022-09-22T10:26:30.481Z,2.60
2022-09-22T10:29:14.918Z,3.00
2022-09-22T10:31:59.885Z,2.80
2022-09-22T10:34:30.826Z,2.40
2022-09-22T10:36:59.107Z,2.70
2022-09-22T10:39:32.680Z,2.40
2022-09-22T10:42:02.445Z,3.00
2022-09-22T10:44:42.965Z,2.40
2022-09-22T10:47:26.254Z,2.00
2022-09-22T10:50:09.330Z,2.00
2022-09-22T10:52:42.524Z,1.90
2022-09-22T10:55:16.702Z,2.40
2022-09-22T10:58:00.678Z,1.70
2022-09-22T11:00:28.640Z,3.00
2022-09-22T11:03:10.848Z,2.30
2022-09-22T11:06:06.655Z,1.90
2022-09-22T11:09:00.031Z,1.40
2022-09-22T11:11:48.475Z,1.50
2022-09-22T11:14:24.875Z,1.80
2022-09-22T11:16:59.671Z,1.50
2022-09-22T11:19:34.045Z,1.80
2022-09-22T11:22:08.035Z,1.80
2022-09-22T11:24:43.923Z,1.60
2022-09-22T11:27:15.604Z,1.60
2022-09-22T11:29:50.493Z,2.00
2022-09-22T11:32:25.672Z,2.30
2022-09-22T11:35:02.194Z,2.30
2022-09-22T11:37:37.582Z,3.20
2022-09-22T11:40:16.599Z,3.00
2022-09-22T11:42:47.350Z,2.30
2022-09-22T11:45:21.762Z,2.40
2022-09-22T11:47:57.310Z,2.80
2022-09-22T11:50:52.115Z,2.20
2022-09-22T11:53:35.755Z,2.30
2022-09-22T11:56:14.048Z,2.50
2022-09-22T11:58:44.565Z,2.10
2022-09-22T12:01:14.022Z,2.40
2022-09-22T12:03:44.128Z,2.20
2022-09-22T12:06:14.626Z,1.80
2022-09-22T12:08:45.655Z,1.90
2022-09-22T12:11:14.465Z,2.10
2022-09-22T12:13:43.042Z,2.20
2022-09-22T12:16:17.597Z,2.30
2022-09-22T12:18:48.501Z,2.20
2022-09-22T12:21:22.465Z,2.50
2022-09-22T12:23:51.478Z,2.30
2022-09-22T12:26:26.844Z,2.30
2022-09-22T12:28:55.121Z,2.60
2022-09-22T12:31:34.295Z,2.50
2022-09-22T12:34:03.137Z,2.40
2022-09-22T12:36:32.806Z,2.40
2022-09-22T12:39:14.027Z,2.40
2022-09-22T12:41:47.875Z,2.60
2022-09-22T12:44:18.972Z,2.20
2022-09-22T12:46:48.203Z,2.40
2022-09-22T12:49:18.494Z,2.60
2022-09-22T12:51:46.207Z,2.50
2022-09-22T12:54:54.978Z,2.70
2022-09-22T12:57:43.914Z,1.90
2022-09-22T13:00:20.484Z,1.90
2022-09-22T13:02:50.021Z,2.20
2022-09-22T13:05:46.220Z,2.00
2022-09-22T13:08:17.186Z,2.40
2022-09-22T13:10:52.550Z,2.40
2022-09-22T13:13:36.198Z,2.30
2022-09-22T13:16:05.463Z,2.10
2022-09-22T13:18:34.831Z,2.30
2022-09-22T13:21:03.750Z,2.90
2022-09-22T13:23:31.583Z,2.10
2022-09-22T13:26:06.496Z,2.30
2022-09-22T13:28:34.416Z,2.40
2022-09-22T13:31:05.951Z,2.50
2022-09-22T13:33:35.977Z,2.80
2022-09-22T13:36:05.613Z,2.80
2022-09-22T13:38:35.988Z,2.40
2022-09-22T13:41:06.885Z,2.80
2022-09-22T13:43:37.111Z,3.40
2022-09-22T13:46:06.209Z,2.70
2022-09-22T13:48:36.186Z,2.90
2022-09-22T13:51:05.744Z,3.30
2022-09-22T13:53:33.773Z,3.80
2022-09-22T13:56:01.788Z,3.20
2022-09-22T13:58:34.404Z,2.90
2022-09-22T14:01:19.283Z,3.10
2022-09-22T14:03:47.887Z,2.90
2022-09-22T14:06:16.533Z,4.10
2022-09-22T14:08:45.435Z,2.90
2022-09-22T14:11:14.725Z,3.00
2022-09-22T14:13:44.010Z,3.00
2022-09-22T14:16:16.949Z,3.20
2022-09-22T14:18:45.943Z,2.60
2022-09-22T14:21:13.767Z,2.80
2022-09-22T14:23:45.594Z,2.60
2022-09-22T14:26:21.599Z,2.50
2022-09-22T14:28:49.376Z,2.00
2022-09-22T14:31:21.716Z,2.30
2022-09-22T14:33:50.000Z,2.40
2022-09-22T14:36:18.894Z,2.80
2022-09-22T14:38:59.520Z,2.50
2022-09-22T14:41:33.478Z,2.60
2022-09-22T14:44:03.672Z,3.00
2022-09-22T14:46:34.309Z,2.90
2022-09-22T14:49:16.517Z,2.60
2022-09-22T14:51:47.550Z,2.40
2022-09-22T14:54:16.242Z,2.60
2022-09-22T14:56:44.223Z,3.00
2022-09-22T14:59:35.115Z,3.20
2022-09-22T15:02:21.987Z,3.00
2022-09-22T15:04:50.994Z,3.40
2022-09-22T15:07:25.588Z,3.30
2022-09-22T15:09:55.966Z,2.60
2022-09-22T15:12:35.806Z,2.80
2022-09-22T15:15:04.108Z,2.90
2022-09-22T15:17:54.591Z,3.20
2022-09-22T15:20:24.399Z,3.00
2022-09-22T15:22:53.693Z,3.40
2022-09-22T15:25:21.893Z,3.50
2022-09-22T15:27:52.924Z,3.40
2022-09-22T15:30:21.815Z,3.90
2022-09-22T15:32:49.780Z,3.90
2022-09-22T15:35:18.250Z,3.70
2022-09-22T15:37:46.821Z,4.20
2022-09-22T15:40:17.128Z,3.90
2022-09-22T15:43:08.769Z,4.30
2022-09-22T15:45:34.660Z,4.30
2022-09-22T15:48:02.822Z,4.30
2022-09-22T15:50:30.520Z,4.20
2022-09-22T15:52:59.830Z,4.00
2022-09-22T15:55:27.433Z,5.80
2022-09-22T15:57:59.354Z,4.40
2022-09-22T16:00:28.668Z,4.10
2022-09-22T16:02:56.963Z,4.30
2022-09-22T16:05:25.030Z,4.00
2022-09-22T16:07:53.399Z,4.80
2022-09-22T16:10:23.694Z,4.30
2022-09-22T16:12:51.271Z,4.40
2022-09-22T16:15:19.823Z,3.60
2022-09-22T16:17:47.714Z,4.30
2022-09-22T16:20:16.298Z,4.50
2022-09-22T16:22:45.483Z,4.70
2022-09-22T16:25:14.897Z,4.70
2022-09-22T16:27:42.640Z,4.70
2022-09-22T16:30:11.449Z,4.10
2022-09-22T16:32:39.518Z,5.00
2022-09-22T16:35:08.412Z,5.10
2022-09-22T16:37:36.716Z,5.30
2022-09-22T16:40:04.986Z,5.20
2022-09-22T16:42:33.029Z,5.10
2022-09-22T16:45:01.205Z,4.60
2022-09-22T16:47:29.171Z,4.70
2022-09-22T16:49:57.553Z,4.50
2022-09-22T16:52:31.841Z,4.80
2022-09-22T16:55:00.265Z,5.10
2022-09-22T16:57:28.628Z,5.60
2022-09-22T16:59:56.782Z,5.40
2022-09-22T17:02:25.751Z,6.40
2022-09-22T17:04:53.861Z,5.40
2022-09-22T17:07:23.871Z,4.50
2022-09-22T17:09:51.382Z,5.70
2022-09-22T17:12:22.496Z,5.00
2022-09-22T17:14:50.336Z,5.30
2022-09-22T17:17:19.434Z,5.20
2022-09-22T17:19:47.820Z,4.80
2022-09-22T17:22:18.856Z,4.90
2022-09-22T17:24:46.615Z,4.80
2022-09-22T17:38:11.862Z,6.80
2022-09-22T17:40:41.944Z,7.60
2022-09-22T17:43:10.697Z,6.30
2022-09-22T17:45:38.811Z,6.70
2022-09-22T17:48:24.954Z,8.60
2022-09-22T17:51:11.770Z,7.80
2022-09-22T17:53:57.450Z,7.00
2022-09-22T17:56:27.670Z,7.10
2022-09-22T17:58:55.644Z,7.30
2022-09-22T18:01:23.629Z,8.80
2022-09-22T18:03:52.195Z,8.10
2022-09-22T18:06:20.772Z,7.80
2022-09-22T18:08:48.848Z,7.30
2022-09-22T18:11:17.023Z,8.40
2022-09-22T18:13:44.886Z,8.70
2022-09-22T18:16:21.050Z,8.50
2022-09-22T18:18:49.218Z,8.40
2022-09-22T18:21:18.197Z,8.50
2022-09-22T18:23:46.688Z,8.60
2022-09-22T18:26:18.178Z,9.20
2022-09-22T18:28:47.511Z,9.50
2022-09-22T18:31:19.240Z,9.90
2022-09-22T18:33:47.459Z,9.00
2022-09-22T18:36:15.304Z,8.70
2022-09-22T18:38:43.651Z,9.30
2022-09-22T18:41:11.874Z,9.00
2022-09-22T18:43:42.713Z,9.10
2022-09-22T18:46:16.851Z,9.50
2022-09-22T18:48:44.342Z,9.40
2022-09-22T18:51:12.559Z,9.50
2022-09-22T18:53:40.421Z,9.20
2022-09-22T18:56:09.710Z,9.40
2022-09-22T18:58:37.580Z,9.40
2022-09-22T19:01:05.926Z,9.80
2022-09-22T19:03:34.240Z,10.00
2022-09-22T19:06:02.308Z,9.20
2022-09-22T19:08:29.972Z,9.00
2022-09-22T19:10:57.630Z,8.70
2022-09-22T19:13:26.054Z,8.40
2022-09-22T19:15:58.150Z,8.50
2022-09-22T19:18:27.352Z,8.80
2022-09-22T19:20:55.031Z,9.70
2022-09-22T19:23:22.691Z,8.10
2022-09-22T19:25:51.270Z,8.90
2022-09-22T19:28:19.045Z,8.30
2022-09-22T19:30:46.847Z,8.60
2022-09-22T19:33:15.037Z,9.20
2022-09-22T19:35:42.635Z,8.60
2022-09-22T19:47:43.432Z,11.60
2022-09-22T19:50:11.297Z,10.80
2022-09-22T19:52:38.956Z,10.60
2022-09-22T19:55:08.426Z,9.80
2022-09-22T19:57:41.050Z,10.10
2022-09-22T20:00:11.169Z,10.40
2022-09-22T20:02:41.524Z,9.80
2022-09-22T20:05:17.493Z,10.80
2022-09-22T20:07:45.094Z,10.50
2022-09-22T20:10:13.184Z,9.50
2022-09-22T20:12:41.252Z,10.50
2022-09-22T20:15:11.713Z,12.00
2022-09-22T20:17:39.735Z,10.80
2022-09-22T20:20:08.530Z,10.00
2022-09-22T20:22:37.745Z,11.00
2022-09-22T20:25:06.558Z,9.80
2022-09-22T20:27:35.525Z,10.20
2022-09-22T20:30:03.781Z,10.40
2022-09-22T20:32:32.039Z,10.10
2022-09-22T20:35:01.356Z,10.00
2022-09-22T20:37:31.323Z,9.50
2022-09-22T20:39:59.032Z,10.60
2022-09-22T20:42:26.677Z,12.40
2022-09-22T20:44:56.152Z,11.10
2022-09-22T20:47:24.680Z,11.10
2022-09-22T20:49:52.646Z,11.80
2022-09-22T20:52:20.820Z,11.20
2022-09-22T20:54:48.941Z,12.10
2022-09-22T20:57:17.065Z,11.70
2022-09-22T20:59:45.141Z,11.40
2022-09-22T21:02:13.725Z,12.00
2022-09-22T21:04:41.996Z,12.40
2022-09-22T21:07:10.785Z,13.60
2022-09-22T21:09:56.972Z,13.50
2022-09-22T21:12:30.259Z,12.70
2022-09-22T21:14:59.199Z,11.40
2022-09-22T21:17:29.117Z,11.60
2022-09-22T21:19:57.347Z,12.90
2022-09-22T21:22:27.624Z,11.70
2022-09-22T21:24:55.945Z,11.90
2022-09-22T21:27:24.231Z,12.20
2022-09-22T21:29:52.658Z,11.80
2022-09-22T21:32:20.680Z,14.50
2022-09-22T21:34:48.328Z,12.00
2022-09-22T21:37:16.408Z,11.40
2022-09-22T21:39:44.270Z,12.40
2022-09-22T21:42:11.828Z,13.00
2022-09-22T21:44:39.695Z,13.40
2022-09-22T21:47:07.814Z,13.40
2022-09-22T21:49:35.428Z,13.20
2022-09-22T21:52:04.010Z,12.20
2022-09-22T21:54:32.696Z,14.00
2022-09-22T21:57:00.350Z,13.40
2022-09-22T21:59:28.018Z,13.30
2022-09-22T22:01:56.202Z,12.90
2022-09-22T22:04:23.888Z,13.40
2022-09-22T22:06:51.717Z,13.00
2022-09-22T22:09:20.399Z,13.20
2022-09-22T22:11:48.804Z,12.80
2022-09-22T22:14:17.253Z,11.40
2022-09-22T22:16:45.946Z,13.50
2022-09-22T22:19:14.438Z,13.10
2022-09-22T22:21:42.697Z,10.90
2022-09-22T22:24:38.723Z,12.10
2022-09-22T22:27:09.369Z,12.90
2022-09-22T22:29:38.964Z,13.50
2022-09-22T22:32:08.065Z,13.90
2022-09-22T22:34:36.744Z,12.60
2022-09-22T22:37:10.108Z,12.20
2022-09-22T22:39:37.918Z,12.20
2022-09-22T22:42:06.896Z,11.00
2022-09-22T22:44:34.761Z,12.50
2022-09-22T22:47:02.518Z,12.50
2022-09-22T22:49:32.096Z,12.00
2022-09-22T22:52:00.098Z,12.30
2022-09-22T22:54:27.853Z,11.80
2022-09-22T22:56:56.027Z,11.70
2022-09-22T22:59:23.899Z,13.40
2022-09-22T23:01:52.214Z,13.00
2022-09-22T23:04:21.134Z,12.90
2022-09-22T23:06:48.671Z,13.00
2022-09-22T23:09:16.868Z,13.30
2022-09-22T23:11:45.612Z,13.60
2022-09-22T23:14:15.121Z,12.40
2022-09-22T23:16:43.399Z,12.20
2022-09-22T23:19:13.178Z,12.20
2022-09-22T23:21:41.136Z,12.80
2022-09-22T23:24:08.800Z,13.20
2022-09-22T23:26:37.152Z,12.50
2022-09-22T23:29:05.665Z,14.20
2022-09-22T23:31:34.718Z,13.40
2022-09-22T23:34:03.239Z,13.40
2022-09-22T23:36:32.742Z,14.10
2022-09-22T23:39:02.969Z,13.70
2022-09-22T23:41:31.230Z,15.10
2022-09-22T23:43:58.893Z,15.30
2022-09-22T23:46:26.752Z,14.60
2022-09-22T23:48:59.441Z,16.10
2022-09-22T23:51:28.206Z,14.80
2022-09-22T23:53:55.882Z,16.80
2022-09-22T23:56:23.822Z,16.50
2022-09-22T23:58:52.144Z,15.00
